createdAt,value
2022-11-21T00:02:27.912Z,84.10
2022-11-21T00:05:14.327Z,84.18
2022-11-21T00:07:59.940Z,84.34
2022-11-21T00:10:45.776Z,83.48
2022-11-21T00:13:31.141Z,84.14
2022-11-21T00:16:17.449Z,83.81
2022-11-21T00:19:02.635Z,83.60
2022-11-21T00:21:48.279Z,83.67
2022-11-21T00:24:33.714Z,83.45
2022-11-21T00:27:19.390Z,83.45
2022-11-21T00:30:07.580Z,82.68
2022-11-21T00:32:52.991Z,82.98
2022-11-21T00:35:38.913Z,82.99
2022-11-21T00:38:24.480Z,82.65
2022-11-21T00:41:09.844Z,82.40
2022-11-21T00:43:55.242Z,82.17
2022-11-21T00:46:41.854Z,82.71
2022-11-21T00:49:27.515Z,82.99
2022-11-21T00:52:13.319Z,83.14
2022-11-21T00:54:58.881Z,82.89
2022-11-21T00:57:44.275Z,82.57
2022-11-21T01:00:29.613Z,83.20
2022-11-21T01:03:15.023Z,83.11
2022-11-21T01:06:05.017Z,83.07
2022-11-21T01:08:50.510Z,83.02
2022-11-21T01:11:35.924Z,82.96
2022-11-21T01:14:21.376Z,82.87
2022-11-21T01:17:07.264Z,82.72
2022-11-21T01:19:52.697Z,82.36
2022-11-21T01:22:37.965Z,81.68
2022-11-21T01:25:23.469Z,82.32
2022-11-21T01:28:08.602Z,82.59
2022-11-21T01:30:53.981Z,82.36
2022-11-21T01:33:40.070Z,82.52
2022-11-21T01:36:35.072Z,82.54
2022-11-21T01:39:20.701Z,82.59
2022-11-21T01:42:06.041Z,82.63
2022-11-21T01:44:54.451Z,82.31
2022-11-21T01:47:39.784Z,82.12
2022-11-21T01:50:25.357Z,82.36
2022-11-21T01:53:11.533Z,81.28
2022-11-21T01:55:57.383Z,81.96
2022-11-21T01:58:45.229Z,81.67
2022-11-21T02:01:32.783Z,81.94
2022-11-21T02:04:19.024Z,82.23
2022-11-21T02:07:06.966Z,82.90
2022-11-21T02:09:56.322Z,81.79
2022-11-21T02:12:49.252Z,81.95
2022-11-21T02:15:34.530Z,81.36
2022-11-21T02:18:19.874Z,81.31
2022-11-21T02:21:40.269Z,82.35
2022-11-21T02:24:28.611Z,81.84
2022-11-21T02:27:14.780Z,82.14
2022-11-21T02:30:03.191Z,81.76
2022-11-21T02:32:48.689Z,81.86
2022-11-21T02:35:34.385Z,82.61
2022-11-21T02:38:24.206Z,82.80
2022-11-21T02:41:26.688Z,83.06
2022-11-21T02:44:25.424Z,83.23
2022-11-21T02:47:11.693Z,82.79
2022-11-21T02:50:14.213Z,82.79
2022-11-21T02:52:59.706Z,82.75
2022-11-21T02:55:45.558Z,82.75
2022-11-21T02:58:31.183Z,82.79
2022-11-21T03:01:16.527Z,82.73
2022-11-21T03:04:01.921Z,82.44
2022-11-21T03:06:47.327Z,82.41
2022-11-21T03:09:32.772Z,82.83
2022-11-21T03:12:17.925Z,82.46
2022-11-21T03:15:04.773Z,83.36
2022-11-21T03:17:49.984Z,82.36
2022-11-21T03:20:35.703Z,82.89
2022-11-21T03:23:21.440Z,82.63
2022-11-21T03:26:06.956Z,82.35
2022-11-21T03:28:52.461Z,82.59
2022-11-21T03:31:37.898Z,82.61
2022-11-21T03:34:25.278Z,81.97
2022-11-21T03:37:10.719Z,82.72
2022-11-21T03:39:56.119Z,82.09
2022-11-21T03:42:41.724Z,82.41
2022-11-21T03:45:27.291Z,82.23
2022-11-21T03:48:12.811Z,82.29
2022-11-21T03:50:58.358Z,82.65
2022-11-21T03:53:43.581Z,82.28
2022-11-21T03:56:29.438Z,82.06
2022-11-21T03:59:14.934Z,81.92
2022-11-21T04:02:00.534Z,81.52
2022-11-21T04:04:45.825Z,82.08
2022-11-21T04:07:31.268Z,81.81
2022-11-21T04:10:16.796Z,82.21
2022-11-21T04:13:02.152Z,82.11
2022-11-21T04:15:47.967Z,82.18
2022-11-21T04:18:37.219Z,81.99
2022-11-21T04:21:22.619Z,81.88
2022-11-21T04:24:08.260Z,81.56
2022-11-21T04:26:56.548Z,81.15
2022-11-21T04:29:41.886Z,81.15
2022-11-21T04:32:27.305Z,81.41
2022-11-21T04:35:12.866Z,81.60
2022-11-21T04:37:58.257Z,81.25
2022-11-21T04:40:45.283Z,80.87
2022-11-21T04:43:30.809Z,81.36
2022-11-21T04:46:16.242Z,81.52
2022-11-21T04:49:01.864Z,81.24
2022-11-21T04:51:47.202Z,81.25
2022-11-21T04:54:32.577Z,80.66
2022-11-21T04:57:18.182Z,81.05
2022-11-21T05:00:04.291Z,80.32
2022-11-21T05:02:50.148Z,80.18
2022-11-21T05:05:35.613Z,80.61
2022-11-21T05:08:21.234Z,81.19
2022-11-21T05:11:25.251Z,81.45
2022-11-21T05:14:10.469Z,81.01
2022-11-21T05:16:55.793Z,80.80
2022-11-21T05:19:41.201Z,80.63
2022-11-21T05:22:26.681Z,81.14
2022-11-21T05:25:12.214Z,81.17
2022-11-21T05:27:57.653Z,81.46
2022-11-21T05:30:43.032Z,82.16
2022-11-21T05:33:28.305Z,81.44
2022-11-21T05:36:13.857Z,82.38
2022-11-21T05:38:59.206Z,81.51
2022-11-21T05:41:44.617Z,81.55
2022-11-21T05:44:30.550Z,81.88
2022-11-21T05:47:16.354Z,81.38
2022-11-21T05:50:02.002Z,80.90
2022-11-21T05:52:47.861Z,81.40
2022-11-21T05:55:36.480Z,81.28
2022-11-21T05:58:22.841Z,80.81
2022-11-21T06:01:10.303Z,81.39
2022-11-21T06:03:55.982Z,80.92
2022-11-21T06:06:41.764Z,80.95
2022-11-21T06:09:27.831Z,81.55
2022-11-21T06:12:13.428Z,81.36
2022-11-21T06:14:58.694Z,80.38
2022-11-21T06:17:43.908Z,80.86
2022-11-21T06:20:29.352Z,80.08
2022-11-21T06:23:15.265Z,80.48
2022-11-21T06:26:04.238Z,80.89
2022-11-21T06:28:51.864Z,80.47
2022-11-21T06:31:38.124Z,80.32
2022-11-21T06:34:28.664Z,80.47
2022-11-21T06:37:14.622Z,80.28
2022-11-21T06:40:03.307Z,80.02
2022-11-21T06:42:49.199Z,79.75
2022-11-21T06:45:34.532Z,79.62
2022-11-21T06:48:19.845Z,79.91
2022-11-21T06:51:06.570Z,79.78
2022-11-21T06:53:57.779Z,79.16
2022-11-21T06:56:44.384Z,79.80
2022-11-21T06:59:30.231Z,79.29
2022-11-21T07:02:16.424Z,79.10
2022-11-21T07:05:02.066Z,79.69
2022-11-21T07:07:48.402Z,79.47
2022-11-21T07:10:34.132Z,79.51
2022-11-21T07:13:22.994Z,79.78
2022-11-21T07:16:11.269Z,79.62
2022-11-21T07:18:56.858Z,80.09
2022-11-21T07:21:44.699Z,79.88
2022-11-21T07:24:35.282Z,79.33
2022-11-21T07:27:21.228Z,78.67
2022-11-21T07:30:09.986Z,79.21
2022-11-21T07:33:02.404Z,78.67
2022-11-21T07:35:48.317Z,79.51
2022-11-21T07:38:34.044Z,79.61
2022-11-21T07:41:20.695Z,79.99
2022-11-21T07:44:07.249Z,79.85
2022-11-21T07:46:56.739Z,79.62
2022-11-21T07:49:42.319Z,79.19
2022-11-21T07:52:30.196Z,79.13
2022-11-21T07:55:16.241Z,79.71
2022-11-21T07:58:05.562Z,79.16
2022-11-21T08:00:51.168Z,78.86
2022-11-21T08:03:36.840Z,78.87
2022-11-21T08:06:22.593Z,79.66
2022-11-21T08:09:10.453Z,79.26
2022-11-21T08:11:58.005Z,79.07
2022-11-21T08:14:44.470Z,78.88
2022-11-21T08:17:29.842Z,79.05
2022-11-21T08:20:16.465Z,78.43
2022-11-21T08:23:02.511Z,78.88
2022-11-21T08:25:48.163Z,78.66
2022-11-21T08:28:33.865Z,78.53
2022-11-21T08:31:19.500Z,79.22
2022-11-21T08:34:09.086Z,78.92
2022-11-21T08:37:00.070Z,79.30
2022-11-21T08:39:45.817Z,79.21
2022-11-21T08:42:31.601Z,78.97
2022-11-21T08:45:17.068Z,78.70
2022-11-21T08:48:02.609Z,78.12
2022-11-21T08:50:48.810Z,78.78
2022-11-21T08:53:34.624Z,78.98
2022-11-21T08:56:20.967Z,79.49
2022-11-21T08:59:11.043Z,78.95
2022-11-21T09:01:57.880Z,79.24
2022-11-21T09:04:43.587Z,78.90
2022-11-21T09:07:28.923Z,78.77
2022-11-21T09:10:15.436Z,79.39
2022-11-21T09:13:02.649Z,79.20
2022-11-21T09:16:06.812Z,79.47
2022-11-21T09:18:53.322Z,79.30
2022-11-21T09:21:39.608Z,78.40
2022-11-21T09:24:33.369Z,78.39
2022-11-21T09:27:19.893Z,77.84
2022-11-21T09:30:06.471Z,78.22
2022-11-21T09:32:52.928Z,78.25
2022-11-21T09:35:38.945Z,77.65
2022-11-21T09:38:26.682Z,78.43
2022-11-21T09:41:52.335Z,78.28
2022-11-21T09:44:43.997Z,78.05
2022-11-21T09:47:37.268Z,78.38
2022-11-21T09:50:36.291Z,78.36
2022-11-21T09:53:50.834Z,78.77
2022-11-21T09:56:41.981Z,78.59
2022-11-21T09:59:39.348Z,79.19
2022-11-21T10:02:26.408Z,78.61
2022-11-21T10:05:15.619Z,78.65
2022-11-21T10:08:16.971Z,79.38
2022-11-21T10:11:19.397Z,79.14
2022-11-21T10:14:29.013Z,78.55
2022-11-21T10:17:20.642Z,79.26
2022-11-21T10:20:25.422Z,79.69
2022-11-21T10:23:20.878Z,79.91
2022-11-21T10:26:21.952Z,79.37
2022-11-21T10:29:38.560Z,78.95
2022-11-21T10:32:28.526Z,78.63
2022-11-21T10:35:29.290Z,78.22
2022-11-21T10:38:29.336Z,77.92
2022-11-21T10:41:17.708Z,78.27
2022-11-21T10:44:55.747Z,78.82
2022-11-21T10:47:43.727Z,78.34
2022-11-21T10:51:07.463Z,78.65
2022-11-21T10:54:26.564Z,78.59
2022-11-21T10:57:20.781Z,78.79
2022-11-21T11:00:12.550Z,78.20
2022-11-21T11:03:18.192Z,78.43
2022-11-21T11:06:03.893Z,77.91
2022-11-21T11:08:53.189Z,77.77
2022-11-21T11:11:40.457Z,77.44
2022-11-21T11:14:33.101Z,77.81
2022-11-21T11:17:33.698Z,77.19
2022-11-21T11:20:36.874Z,76.88
2022-11-21T11:23:26.157Z,77.22
2022-11-21T11:26:20.169Z,76.80
2022-11-21T11:29:15.212Z,76.86
2022-11-21T11:32:04.336Z,77.24
2022-11-21T11:35:09.187Z,76.52
2022-11-21T11:38:04.725Z,76.85
2022-11-21T11:40:50.243Z,76.84
2022-11-21T11:44:10.493Z,76.47
2022-11-21T11:47:26.668Z,76.17
2022-11-21T11:50:32.795Z,76.15
2022-11-21T11:53:31.218Z,76.28
2022-11-21T11:56:30.822Z,76.48
2022-11-21T11:59:20.816Z,76.76
2022-11-21T12:02:19.344Z,76.40
2022-11-21T12:05:14.848Z,76.79
2022-11-21T12:11:41.437Z,76.66
2022-11-21T12:15:18.958Z,76.78
2022-11-21T12:18:19.545Z,77.19
2022-11-21T12:21:12.994Z,77.35
2022-11-21T12:24:02.776Z,78.53
2022-11-21T12:27:14.975Z,77.23
2022-11-21T12:30:20.463Z,78.04
2022-11-21T12:33:16.012Z,77.62
2022-11-21T12:36:18.685Z,77.50
2022-11-21T12:39:19.160Z,77.42
2022-11-21T12:42:38.734Z,77.46
2022-11-21T12:45:36.106Z,77.51
2022-11-21T12:48:56.639Z,77.55
2022-11-21T12:52:29.554Z,77.25
2022-11-21T12:55:34.896Z,78.57
2022-11-21T12:58:28.091Z,77.86
2022-11-21T13:01:32.998Z,78.41
2022-11-21T13:04:26.744Z,77.85
2022-11-21T13:07:12.985Z,77.30
2022-11-21T13:10:01.223Z,77.42
2022-11-21T13:13:29.728Z,78.13
2022-11-21T13:16:45.754Z,77.59
2022-11-21T13:19:49.030Z,77.86
2022-11-21T13:22:37.432Z,77.38
2022-11-21T13:25:32.272Z,77.98
2022-11-21T13:28:19.305Z,78.08
2022-11-21T13:31:32.976Z,78.35
2022-11-21T13:34:39.623Z,78.16
2022-11-21T13:38:03.789Z,78.20
2022-11-21T13:41:10.727Z,78.51
2022-11-21T13:44:32.217Z,78.01
2022-11-21T13:47:57.269Z,78.11
2022-11-21T13:51:29.525Z,77.62
2022-11-21T13:54:47.196Z,77.62
2022-11-21T13:57:35.988Z,77.72
2022-11-21T14:00:31.875Z,77.85
2022-11-21T14:03:21.046Z,77.58
2022-11-21T14:06:37.873Z,77.38
2022-11-21T14:09:37.046Z,77.08
2022-11-21T14:12:47.185Z,77.25
2022-11-21T14:15:50.320Z,76.91
2022-11-21T14:18:39.018Z,76.42
2022-11-21T14:21:31.030Z,77.21
2022-11-21T14:24:19.701Z,76.99
2022-11-21T14:27:07.075Z,76.98
2022-11-21T14:29:52.262Z,76.52
2022-11-21T14:32:37.794Z,76.84
2022-11-21T14:35:24.688Z,76.84
2022-11-21T14:38:14.590Z,77.11
2022-11-21T14:41:31.798Z,77.49
2022-11-21T14:44:19.785Z,76.94
2022-11-21T14:47:08.426Z,77.33
2022-11-21T14:49:57.019Z,77.43
2022-11-21T14:52:45.116Z,76.97
2022-11-21T14:55:34.132Z,77.70
2022-11-21T14:58:22.777Z,77.56
2022-11-21T15:01:20.594Z,77.90
2022-11-21T15:04:08.542Z,78.05
2022-11-21T15:06:54.289Z,77.61
2022-11-21T15:12:58.972Z,78.35
2022-11-21T15:15:49.628Z,78.68
2022-11-21T15:18:41.609Z,78.40
2022-11-21T15:21:27.214Z,78.23
2022-11-21T15:24:29.820Z,78.10
2022-11-21T15:27:31.467Z,78.03
2022-11-21T15:30:23.375Z,78.61
2022-11-21T15:33:20.193Z,78.24
2022-11-21T15:36:14.005Z,78.21
2022-11-21T15:39:00.622Z,78.14
2022-11-21T15:41:46.874Z,78.53
2022-11-21T15:44:33.177Z,78.65
2022-11-21T15:47:18.961Z,77.94
2022-11-21T15:50:04.839Z,78.47
2022-11-21T15:52:52.572Z,78.60
2022-11-21T15:55:38.246Z,78.84
2022-11-21T15:58:23.925Z,78.65
2022-11-21T16:01:27.507Z,78.70
2022-11-21T16:04:13.193Z,79.06
2022-11-21T16:06:58.561Z,78.58
2022-11-21T16:09:46.018Z,79.04
2022-11-21T16:12:31.806Z,78.63
2022-11-21T16:15:17.433Z,78.66
2022-11-21T16:18:03.070Z,78.56
2022-11-21T16:20:49.586Z,79.26
2022-11-21T16:23:35.737Z,79.86
2022-11-21T16:26:22.290Z,78.80
2022-11-21T16:29:10.725Z,79.15
2022-11-21T16:31:56.417Z,78.73
2022-11-21T16:34:42.151Z,79.35
2022-11-21T16:37:28.165Z,79.22
2022-11-21T16:40:13.538Z,79.26
2022-11-21T16:43:09.003Z,78.64
2022-11-21T16:45:55.133Z,78.18
2022-11-21T16:48:41.483Z,78.36
2022-11-21T16:51:28.308Z,78.39
2022-11-21T16:54:15.304Z,78.73
2022-11-21T16:57:01.232Z,78.80
2022-11-21T16:59:47.218Z,78.45
2022-11-21T17:02:32.603Z,78.99
2022-11-21T17:05:18.501Z,78.81
2022-11-21T17:08:11.070Z,79.08
2022-11-21T17:10:57.791Z,78.52
2022-11-21T17:13:44.912Z,79.03
2022-11-21T17:16:31.269Z,78.85
2022-11-21T17:19:17.530Z,79.46
2022-11-21T17:22:06.104Z,79.64
2022-11-21T17:24:53.286Z,80.02
2022-11-21T17:27:39.245Z,79.94
2022-11-21T17:30:24.950Z,79.74
2022-11-21T17:33:10.831Z,79.64
2022-11-21T17:35:56.462Z,80.17
2022-11-21T17:38:47.062Z,80.38
2022-11-21T17:41:33.095Z,79.98
2022-11-21T17:44:21.147Z,80.18
2022-11-21T17:47:12.533Z,79.80
2022-11-21T17:50:05.376Z,80.35
2022-11-21T17:52:51.521Z,80.06
2022-11-21T17:55:36.961Z,80.06
2022-11-21T17:58:22.264Z,80.25
2022-11-21T18:01:14.084Z,79.62
2022-11-21T18:04:13.544Z,79.79
2022-11-21T18:07:01.796Z,79.74
2022-11-21T18:09:48.500Z,79.38
2022-11-21T18:12:36.102Z,79.59
2022-11-21T18:15:22.410Z,79.56
2022-11-21T18:18:08.683Z,79.32
2022-11-21T18:21:24.869Z,79.58
2022-11-21T18:24:16.496Z,79.09
2022-11-21T18:27:01.878Z,79.07
2022-11-21T18:29:47.642Z,79.42
2022-11-21T18:32:35.259Z,78.86
2022-11-21T18:35:20.906Z,79.39
2022-11-21T18:38:09.104Z,79.14
2022-11-21T18:41:14.645Z,79.15
2022-11-21T18:44:03.197Z,79.52
2022-11-21T18:46:49.127Z,79.44
2022-11-21T18:49:34.876Z,78.86
2022-11-21T18:52:20.311Z,80.13
2022-11-21T18:55:06.294Z,79.82
2022-11-21T18:57:52.277Z,79.12
2022-11-21T19:00:38.012Z,80.10
2022-11-21T19:03:23.700Z,79.54
2022-11-21T19:06:10.754Z,79.26
2022-11-21T19:08:58.388Z,79.62
2022-11-21T19:11:44.038Z,79.36
2022-11-21T19:14:29.615Z,79.47
2022-11-21T19:17:15.322Z,78.70
2022-11-21T19:20:01.114Z,78.57
2022-11-21T19:22:46.429Z,78.60
2022-11-21T19:25:33.522Z,79.03
2022-11-21T19:28:18.890Z,78.77
2022-11-21T19:31:07.467Z,78.50
2022-11-21T19:33:53.555Z,78.25
2022-11-21T19:36:39.436Z,78.10
2022-11-21T19:39:24.848Z,78.31
2022-11-21T19:42:10.337Z,78.32
2022-11-21T19:44:55.625Z,78.24
2022-11-21T19:47:41.197Z,78.14
2022-11-21T19:50:26.971Z,77.67
2022-11-21T19:53:12.767Z,78.22
2022-11-21T19:56:07.099Z,77.47
2022-11-21T19:58:55.410Z,78.38
2022-11-21T20:01:46.856Z,78.05
2022-11-21T20:04:35.472Z,78.04
2022-11-21T20:07:20.831Z,78.18
2022-11-21T20:10:06.573Z,78.50
2022-11-21T20:12:52.136Z,78.62
2022-11-21T20:15:38.743Z,78.76
2022-11-21T20:18:24.290Z,78.74
2022-11-21T20:21:10.635Z,78.25
2022-11-21T20:23:57.440Z,78.14
2022-11-21T20:26:42.751Z,78.21
2022-11-21T20:29:28.428Z,78.33
2022-11-21T20:32:14.203Z,77.62
2022-11-21T20:34:59.739Z,77.58
2022-11-21T20:37:45.496Z,77.22
2022-11-21T20:40:31.258Z,77.88
2022-11-21T20:43:16.420Z,77.57
2022-11-21T20:46:10.019Z,77.96
2022-11-21T20:48:58.685Z,77.19
2022-11-21T20:54:50.393Z,77.66
2022-11-21T20:57:35.692Z,77.70
2022-11-21T21:00:21.420Z,77.38
2022-11-21T21:03:06.991Z,77.46
2022-11-21T21:05:59.683Z,77.56
2022-11-21T21:08:48.404Z,77.49
2022-11-21T21:14:39.623Z,77.21
2022-11-21T21:17:25.121Z,77.17
2022-11-21T21:20:10.798Z,77.40
2022-11-21T21:22:56.582Z,77.19
2022-11-21T21:25:42.797Z,76.91
2022-11-21T21:28:28.462Z,77.17
2022-11-21T21:31:16.139Z,77.14
2022-11-21T21:34:02.490Z,77.04
2022-11-21T21:36:48.777Z,77.31
2022-11-21T21:39:34.193Z,76.54
2022-11-21T21:42:19.433Z,76.77
2022-11-21T21:45:05.186Z,76.86
2022-11-21T21:47:50.526Z,76.46
2022-11-21T21:50:36.243Z,76.71
2022-11-21T21:53:21.827Z,76.56
2022-11-21T21:56:07.332Z,76.35
2022-11-21T21:58:53.169Z,76.40
2022-11-21T22:01:39.006Z,76.56
2022-11-21T22:04:25.855Z,76.65
2022-11-21T22:07:11.686Z,76.70
2022-11-21T22:09:57.545Z,76.38
2022-11-21T22:12:44.269Z,76.58
2022-11-21T22:15:30.038Z,76.84
2022-11-21T22:18:15.281Z,76.33
2022-11-21T22:21:01.354Z,76.83
2022-11-21T22:24:09.881Z,76.67
2022-11-21T22:26:52.722Z,76.68
2022-11-21T22:29:38.410Z,76.34
2022-11-21T22:32:23.628Z,76.52
2022-11-21T22:35:09.682Z,76.13
2022-11-21T22:37:55.259Z,76.62
2022-11-21T22:40:40.778Z,76.86
2022-11-21T22:43:26.164Z,77.12
2022-11-21T22:46:12.716Z,77.35
2022-11-21T22:48:59.241Z,77.10
2022-11-21T22:51:45.103Z,77.35
2022-11-21T22:54:30.922Z,77.16
2022-11-21T22:57:16.727Z,77.23
2022-11-21T23:00:02.459Z,77.51
2022-11-21T23:02:47.969Z,77.52
2022-11-21T23:05:33.446Z,77.59
2022-11-21T23:08:18.768Z,78.02
2022-11-21T23:11:18.497Z,78.41
2022-11-21T23:14:03.778Z,77.86
2022-11-21T23:16:49.215Z,78.66
2022-11-21T23:19:34.948Z,77.99
2022-11-21T23:22:20.240Z,78.40
2022-11-21T23:25:06.047Z,77.89
2022-11-21T23:27:51.275Z,78.29
2022-11-21T23:30:36.830Z,78.03
2022-11-21T23:33:22.387Z,77.68
2022-11-21T23:36:08.052Z,77.62
2022-11-21T23:38:53.230Z,77.32
2022-11-21T23:41:38.425Z,77.59
2022-11-21T23:44:24.171Z,77.12
2022-11-21T23:47:09.466Z,77.05
2022-11-21T23:49:54.844Z,77.29
2022-11-21T23:52:40.071Z,77.45
2022-11-21T23:55:25.557Z,76.94
2022-11-21T23:58:11.853Z,77.32
